sensor_id;sensor_type;location;lat;lon;timestamp;P1;durP1;ratioP1;P2;durP2;ratioP2
65717;SDS011;52445;52.466;-1.016;2024-02-26T00:02:15;3.22;;;1.23;;
65717;SDS011;52445;52.466;-1.016;2024-02-26T00:04:42;1.70;;;0.93;;
65717;SDS011;52445;52.466;-1.016;2024-02-26T00:07:09;2.63;;;1.23;;
65717;SDS011;52445;52.466;-1.016;2024-02-26T00:09:36;2.25;;;1.23;;
65717;SDS011;52445;52.466;-1.016;2024-02-26T00:12:04;6.15;;;1.23;;
65717;SDS011;52445;52.466;-1.016;2024-02-26T00:14:31;3.42;;;1.10;;
65717;SDS011;52445;52.466;-1.016;2024-02-26T00:17:00;3.22;;;1.27;;
65717;SDS011;52445;52.466;-1.016;2024-02-26T00:19:27;3.50;;;1.30;;
65717;SDS011;52445;52.466;-1.016;2024-02-26T00:21:54;2.25;;;1.15;;
65717;SDS011;52445;52.466;-1.016;2024-02-26T00:24:22;2.13;;;1.20;;
65717;SDS011;52445;52.466;-1.016;2024-02-26T00:26:48;2.72;;;1.08;;
65717;SDS011;52445;52.466;-1.016;2024-02-26T00:29:19;5.40;;;1.88;;
65717;SDS011;52445;52.466;-1.016;2024-02-26T00:31:48;3.55;;;1.02;;
65717;SDS011;52445;52.466;-1.016;2024-02-26T00:34:14;2.75;;;1.70;;
65717;SDS011;52445;52.466;-1.016;2024-02-26T00:36:42;5.55;;;1.13;;
65717;SDS011;52445;52.466;-1.016;2024-02-26T00:39:10;6.38;;;1.30;;
65717;SDS011;52445;52.466;-1.016;2024-02-26T00:41:38;1.88;;;0.80;;
65717;SDS011;52445;52.466;-1.016;2024-02-26T00:44:07;6.68;;;1.65;;
65717;SDS011;52445;52.466;-1.016;2024-02-26T00:46:34;2.08;;;1.05;;
65717;SDS011;52445;52.466;-1.016;2024-02-26T00:49:01;2.65;;;1.35;;
65717;SDS011;52445;52.466;-1.016;2024-02-26T00:51:28;3.33;;;1.30;;
65717;SDS011;52445;52.466;-1.016;2024-02-26T00:53:55;1.35;;;0.65;;
65717;SDS011;52445;52.466;-1.016;2024-02-26T00:56:21;2.15;;;1.17;;
65717;SDS011;52445;52.466;-1.016;2024-02-26T00:58:48;2.30;;;1.30;;
65717;SDS011;52445;52.466;-1.016;2024-02-26T01:01:15;1.55;;;1.10;;
65717;SDS011;52445;52.466;-1.016;2024-02-26T01:03:42;2.40;;;1.30;;
65717;SDS011;52445;52.466;-1.016;2024-02-26T01:06:10;2.42;;;1.63;;
65717;SDS011;52445;52.466;-1.016;2024-02-26T01:08:38;2.92;;;0.90;;
65717;SDS011;52445;52.466;-1.016;2024-02-26T01:11:05;2.95;;;1.63;;
65717;SDS011;52445;52.466;-1.016;2024-02-26T01:13:34;7.15;;;1.38;;
65717;SDS011;52445;52.466;-1.016;2024-02-26T01:16:00;1.58;;;0.85;;
65717;SDS011;52445;52.466;-1.016;2024-02-26T01:18:29;4.55;;;0.93;;
65717;SDS011;52445;52.466;-1.016;2024-02-26T01:20:56;2.92;;;1.02;;
65717;SDS011;52445;52.466;-1.016;2024-02-26T01:23:23;2.58;;;1.02;;
65717;SDS011;52445;52.466;-1.016;2024-02-26T01:25:50;2.60;;;1.13;;
65717;SDS011;52445;52.466;-1.016;2024-02-26T01:28:16;5.50;;;0.88;;
65717;SDS011;52445;52.466;-1.016;2024-02-26T01:30:43;3.40;;;1.00;;
65717;SDS011;52445;52.466;-1.016;2024-02-26T01:33:10;2.55;;;1.25;;
65717;SDS011;52445;52.466;-1.016;2024-02-26T01:35:39;2.78;;;1.30;;
65717;SDS011;52445;52.466;-1.016;2024-02-26T01:38:05;2.97;;;1.65;;
65717;SDS011;52445;52.466;-1.016;2024-02-26T01:40:32;1.85;;;1.13;;
65717;SDS011;52445;52.466;-1.016;2024-02-26T01:42:59;2.75;;;1.02;;
65717;SDS011;52445;52.466;-1.016;2024-02-26T01:45:26;1.83;;;0.90;;
65717;SDS011;52445;52.466;-1.016;2024-02-26T01:47:54;1.70;;;0.98;;
65717;SDS011;52445;52.466;-1.016;2024-02-26T01:50:22;2.17;;;0.73;;
65717;SDS011;52445;52.466;-1.016;2024-02-26T01:52:50;1.40;;;0.95;;
65717;SDS011;52445;52.466;-1.016;2024-02-26T01:55:19;4.13;;;1.00;;
65717;SDS011;52445;52.466;-1.016;2024-02-26T01:57:49;2.42;;;0.65;;
65717;SDS011;52445;52.466;-1.016;2024-02-26T02:00:19;6.30;;;0.70;;
65717;SDS011;52445;52.466;-1.016;2024-02-26T02:02:48;1.23;;;0.82;;
65717;SDS011;52445;52.466;-1.016;2024-02-26T02:05:16;1.63;;;1.17;;
65717;SDS011;52445;52.466;-1.016;2024-02-26T02:07:44;1.25;;;0.82;;
65717;SDS011;52445;52.466;-1.016;2024-02-26T02:10:11;2.25;;;0.75;;
65717;SDS011;52445;52.466;-1.016;2024-02-26T02:12:39;2.65;;;0.82;;
65717;SDS011;52445;52.466;-1.016;2024-02-26T02:15:06;3.33;;;1.35;;
65717;SDS011;52445;52.466;-1.016;2024-02-26T02:17:34;4.03;;;0.70;;
65717;SDS011;52445;52.466;-1.016;2024-02-26T02:20:00;2.10;;;1.10;;
65717;SDS011;52445;52.466;-1.016;2024-02-26T02:22:28;2.65;;;1.08;;
65717;SDS011;52445;52.466;-1.016;2024-02-26T02:24:54;4.78;;;1.50;;
65717;SDS011;52445;52.466;-1.016;2024-02-26T02:27:21;2.05;;;1.00;;
65717;SDS011;52445;52.466;-1.016;2024-02-26T02:29:48;5.18;;;1.20;;
65717;SDS011;52445;52.466;-1.016;2024-02-26T02:32:15;2.30;;;0.75;;
65717;SDS011;52445;52.466;-1.016;2024-02-26T02:34:44;3.33;;;1.63;;
65717;SDS011;52445;52.466;-1.016;2024-02-26T02:37:12;3.17;;;1.23;;
65717;SDS011;52445;52.466;-1.016;2024-02-26T02:39:38;2.70;;;1.33;;
65717;SDS011;52445;52.466;-1.016;2024-02-26T02:42:05;3.63;;;1.42;;
65717;SDS011;52445;52.466;-1.016;2024-02-26T02:44:32;5.32;;;2.67;;
65717;SDS011;52445;52.466;-1.016;2024-02-26T02:46:59;4.20;;;1.75;;
65717;SDS011;52445;52.466;-1.016;2024-02-26T02:49:27;4.38;;;1.90;;
65717;SDS011;52445;52.466;-1.016;2024-02-26T02:51:53;2.08;;;1.20;;
65717;SDS011;52445;52.466;-1.016;2024-02-26T02:54:20;4.95;;;2.03;;
65717;SDS011;52445;52.466;-1.016;2024-02-26T02:56:47;4.43;;;1.70;;
65717;SDS011;52445;52.466;-1.016;2024-02-26T02:59:14;2.35;;;1.05;;
65717;SDS011;52445;52.466;-1.016;2024-02-26T03:01:40;3.13;;;1.80;;
65717;SDS011;52445;52.466;-1.016;2024-02-26T03:04:07;3.22;;;1.23;;
65717;SDS011;52445;52.466;-1.016;2024-02-26T03:06:34;2.15;;;1.42;;
65717;SDS011;52445;52.466;-1.016;2024-02-26T03:09:02;2.20;;;1.15;;
65717;SDS011;52445;52.466;-1.016;2024-02-26T03:11:30;2.55;;;1.45;;
65717;SDS011;52445;52.466;-1.016;2024-02-26T03:13:58;2.85;;;1.15;;
65717;SDS011;52445;52.466;-1.016;2024-02-26T03:16:24;2.97;;;1.55;;
65717;SDS011;52445;52.466;-1.016;2024-02-26T03:18:51;5.72;;;1.35;;
65717;SDS011;52445;52.466;-1.016;2024-02-26T03:21:18;2.97;;;1.50;;
65717;SDS011;52445;52.466;-1.016;2024-02-26T03:23:45;3.40;;;1.40;;
65717;SDS011;52445;52.466;-1.016;2024-02-26T03:26:11;2.40;;;1.30;;
65717;SDS011;52445;52.466;-1.016;2024-02-26T03:28:41;6.30;;;1.95;;
65717;SDS011;52445;52.466;-1.016;2024-02-26T03:31:07;7.50;;;2.22;;
65717;SDS011;52445;52.466;-1.016;2024-02-26T03:33:34;4.40;;;2.22;;
65717;SDS011;52445;52.466;-1.016;2024-02-26T03:36:02;4.40;;;2.20;;
65717;SDS011;52445;52.466;-1.016;2024-02-26T03:38:29;4.22;;;2.13;;
65717;SDS011;52445;52.466;-1.016;2024-02-26T03:40:57;4.20;;;2.08;;
65717;SDS011;52445;52.466;-1.016;2024-02-26T03:43:24;4.25;;;1.83;;
65717;SDS011;52445;52.466;-1.016;2024-02-26T03:45:50;3.92;;;1.95;;
65717;SDS011;52445;52.466;-1.016;2024-02-26T03:48:17;4.72;;;1.52;;
65717;SDS011;52445;52.466;-1.016;2024-02-26T03:50:45;3.88;;;2.00;;
65717;SDS011;52445;52.466;-1.016;2024-02-26T03:53:12;2.10;;;1.60;;
65717;SDS011;52445;52.466;-1.016;2024-02-26T03:55:40;4.07;;;1.80;;
65717;SDS011;52445;52.466;-1.016;2024-02-26T03:58:08;2.15;;;1.50;;
65717;SDS011;52445;52.466;-1.016;2024-02-26T04:00:35;2.67;;;1.48;;
65717;SDS011;52445;52.466;-1.016;2024-02-26T04:03:03;2.30;;;1.25;;
65717;SDS011;52445;52.466;-1.016;2024-02-26T04:05:30;2.78;;;1.52;;
65717;SDS011;52445;52.466;-1.016;2024-02-26T04:07:58;4.15;;;1.77;;
65717;SDS011;52445;52.466;-1.016;2024-02-26T04:10:25;3.75;;;1.52;;
65717;SDS011;52445;52.466;-1.016;2024-02-26T04:12:52;3.60;;;1.40;;
65717;SDS011;52445;52.466;-1.016;2024-02-26T04:15:19;4.32;;;1.23;;
65717;SDS011;52445;52.466;-1.016;2024-02-26T04:17:45;4.60;;;1.45;;
65717;SDS011;52445;52.466;-1.016;2024-02-26T04:20:13;5.00;;;1.40;;
65717;SDS011;52445;52.466;-1.016;2024-02-26T04:22:41;2.95;;;1.70;;
65717;SDS011;52445;52.466;-1.016;2024-02-26T04:25:08;4.30;;;1.30;;
65717;SDS011;52445;52.466;-1.016;2024-02-26T04:27:35;4.22;;;1.90;;
65717;SDS011;52445;52.466;-1.016;2024-02-26T04:30:03;3.17;;;1.20;;
65717;SDS011;52445;52.466;-1.016;2024-02-26T04:32:30;5.70;;;1.52;;
65717;SDS011;52445;52.466;-1.016;2024-02-26T04:34:57;2.22;;;1.13;;
65717;SDS011;52445;52.466;-1.016;2024-02-26T04:37:24;2.78;;;0.85;;
65717;SDS011;52445;52.466;-1.016;2024-02-26T04:39:58;4.10;;;1.40;;
65717;SDS011;52445;52.466;-1.016;2024-02-26T04:42:25;6.32;;;1.02;;
65717;SDS011;52445;52.466;-1.016;2024-02-26T04:44:54;3.47;;;1.00;;
65717;SDS011;52445;52.466;-1.016;2024-02-26T04:47:21;2.38;;;1.33;;
65717;SDS011;52445;52.466;-1.016;2024-02-26T04:49:49;2.90;;;0.75;;
65717;SDS011;52445;52.466;-1.016;2024-02-26T04:52:16;2.03;;;1.10;;
65717;SDS011;52445;52.466;-1.016;2024-02-26T04:54:43;1.88;;;1.10;;
65717;SDS011;52445;52.466;-1.016;2024-02-26T04:57:10;2.58;;;2.35;;
65717;SDS011;52445;52.466;-1.016;2024-02-26T04:59:37;13.60;;;0.70;;
65717;SDS011;52445;52.466;-1.016;2024-02-26T05:02:04;2.55;;;0.70;;
65717;SDS011;52445;52.466;-1.016;2024-02-26T05:04:30;2.83;;;0.57;;
65717;SDS011;52445;52.466;-1.016;2024-02-26T05:06:57;1.77;;;1.52;;
65717;SDS011;52445;52.466;-1.016;2024-02-26T05:09:24;1.02;;;0.65;;
65717;SDS011;52445;52.466;-1.016;2024-02-26T05:11:51;0.85;;;0.85;;
65717;SDS011;52445;52.466;-1.016;2024-02-26T05:14:18;1.10;;;0.70;;
65717;SDS011;52445;52.466;-1.016;2024-02-26T05:16:46;1.90;;;0.65;;
65717;SDS011;52445;52.466;-1.016;2024-02-26T05:19:13;0.93;;;0.93;;
65717;SDS011;52445;52.466;-1.016;2024-02-26T05:21:40;2.28;;;0.80;;
65717;SDS011;52445;52.466;-1.016;2024-02-26T05:24:08;0.80;;;0.70;;
65717;SDS011;52445;52.466;-1.016;2024-02-26T05:26:35;1.70;;;0.88;;
65717;SDS011;52445;52.466;-1.016;2024-02-26T05:29:02;2.75;;;1.25;;
65717;SDS011;52445;52.466;-1.016;2024-02-26T05:31:29;3.88;;;0.60;;
65717;SDS011;52445;52.466;-1.016;2024-02-26T05:33:55;1.45;;;0.82;;
65717;SDS011;52445;52.466;-1.016;2024-02-26T05:36:23;1.08;;;0.40;;
65717;SDS011;52445;52.466;-1.016;2024-02-26T05:38:50;0.80;;;0.65;;
65717;SDS011;52445;52.466;-1.016;2024-02-26T05:41:17;0.88;;;0.75;;
65717;SDS011;52445;52.466;-1.016;2024-02-26T05:43:49;3.70;;;1.10;;
65717;SDS011;52445;52.466;-1.016;2024-02-26T05:46:18;2.10;;;0.88;;
65717;SDS011;52445;52.466;-1.016;2024-02-26T05:48:47;2.58;;;1.13;;
65717;SDS011;52445;52.466;-1.016;2024-02-26T05:51:16;0.60;;;0.60;;
65717;SDS011;52445;52.466;-1.016;2024-02-26T05:53:43;5.50;;;1.02;;
65717;SDS011;52445;52.466;-1.016;2024-02-26T05:56:09;1.23;;;0.77;;
65717;SDS011;52445;52.466;-1.016;2024-02-26T05:58:36;2.38;;;0.60;;
65717;SDS011;52445;52.466;-1.016;2024-02-26T06:01:03;1.75;;;0.70;;
65717;SDS011;52445;52.466;-1.016;2024-02-26T06:03:30;0.75;;;0.63;;
65717;SDS011;52445;52.466;-1.016;2024-02-26T06:05:56;0.85;;;0.50;;
65717;SDS011;52445;52.466;-1.016;2024-02-26T06:08:23;2.20;;;1.05;;
65717;SDS011;52445;52.466;-1.016;2024-02-26T06:10:50;1.45;;;0.82;;
65717;SDS011;52445;52.466;-1.016;2024-02-26T06:13:17;2.13;;;0.77;;
65717;SDS011;52445;52.466;-1.016;2024-02-26T06:15:43;2.67;;;0.75;;
65717;SDS011;52445;52.466;-1.016;2024-02-26T06:18:10;4.70;;;0.93;;
65717;SDS011;52445;52.466;-1.016;2024-02-26T06:20:38;0.88;;;0.73;;
65717;SDS011;52445;52.466;-1.016;2024-02-26T06:23:05;0.80;;;0.60;;
65717;SDS011;52445;52.466;-1.016;2024-02-26T06:25:32;1.13;;;0.73;;
65717;SDS011;52445;52.466;-1.016;2024-02-26T06:27:59;0.63;;;0.63;;
65717;SDS011;52445;52.466;-1.016;2024-02-26T06:30:25;2.03;;;1.13;;
65717;SDS011;52445;52.466;-1.016;2024-02-26T06:32:53;1.80;;;1.25;;
65717;SDS011;52445;52.466;-1.016;2024-02-26T06:35:20;3.65;;;1.15;;
65717;SDS011;52445;52.466;-1.016;2024-02-26T06:37:47;2.67;;;1.98;;
65717;SDS011;52445;52.466;-1.016;2024-02-26T06:40:16;3.63;;;0.68;;
65717;SDS011;52445;52.466;-1.016;2024-02-26T06:42:43;1.02;;;0.80;;
65717;SDS011;52445;52.466;-1.016;2024-02-26T06:45:13;2.65;;;0.80;;
65717;SDS011;52445;52.466;-1.016;2024-02-26T06:47:41;4.32;;;0.88;;
65717;SDS011;52445;52.466;-1.016;2024-02-26T06:50:11;1.10;;;0.60;;
65717;SDS011;52445;52.466;-1.016;2024-02-26T06:52:38;5.20;;;0.98;;
65717;SDS011;52445;52.466;-1.016;2024-02-26T06:55:05;1.27;;;0.77;;
65717;SDS011;52445;52.466;-1.016;2024-02-26T06:57:34;2.97;;;0.98;;
65717;SDS011;52445;52.466;-1.016;2024-02-26T07:00:01;0.63;;;0.45;;
65717;SDS011;52445;52.466;-1.016;2024-02-26T07:02:30;1.35;;;0.45;;
65717;SDS011;52445;52.466;-1.016;2024-02-26T07:04:57;1.00;;;0.70;;
65717;SDS011;52445;52.466;-1.016;2024-02-26T07:07:25;2.17;;;0.68;;
65717;SDS011;52445;52.466;-1.016;2024-02-26T07:09:52;0.88;;;0.88;;
65717;SDS011;52445;52.466;-1.016;2024-02-26T07:12:19;0.68;;;0.65;;
65717;SDS011;52445;52.466;-1.016;2024-02-26T07:14:48;4.47;;;1.55;;
65717;SDS011;52445;52.466;-1.016;2024-02-26T07:17:15;2.88;;;1.13;;
65717;SDS011;52445;52.466;-1.016;2024-02-26T07:19:43;1.00;;;0.90;;
65717;SDS011;52445;52.466;-1.016;2024-02-26T07:22:09;1.33;;;0.82;;
65717;SDS011;52445;52.466;-1.016;2024-02-26T07:24:36;1.15;;;1.05;;
65717;SDS011;52445;52.466;-1.016;2024-02-26T07:27:03;1.55;;;0.90;;
65717;SDS011;52445;52.466;-1.016;2024-02-26T07:29:30;1.98;;;0.98;;
65717;SDS011;52445;52.466;-1.016;2024-02-26T07:31:57;5.05;;;0.90;;
65717;SDS011;52445;52.466;-1.016;2024-02-26T07:34:24;1.08;;;0.60;;
65717;SDS011;52445;52.466;-1.016;2024-02-26T07:36:56;3.15;;;1.00;;
65717;SDS011;52445;52.466;-1.016;2024-02-26T07:39:22;1.10;;;0.90;;
65717;SDS011;52445;52.466;-1.016;2024-02-26T07:41:51;3.42;;;1.13;;
65717;SDS011;52445;52.466;-1.016;2024-02-26T07:44:21;5.05;;;1.27;;
65717;SDS011;52445;52.466;-1.016;2024-02-26T07:46:47;6.32;;;0.85;;
65717;SDS011;52445;52.466;-1.016;2024-02-26T07:49:14;1.00;;;0.55;;
65717;SDS011;52445;52.466;-1.016;2024-02-26T07:51:41;3.05;;;1.27;;
65717;SDS011;52445;52.466;-1.016;2024-02-26T07:54:08;1.27;;;0.93;;
65717;SDS011;52445;52.466;-1.016;2024-02-26T07:56:35;1.25;;;0.73;;
65717;SDS011;52445;52.466;-1.016;2024-02-26T07:59:04;0.95;;;0.75;;
65717;SDS011;52445;52.466;-1.016;2024-02-26T08:01:30;1.45;;;0.65;;
65717;SDS011;52445;52.466;-1.016;2024-02-26T08:03:57;1.17;;;0.80;;
65717;SDS011;52445;52.466;-1.016;2024-02-26T08:06:24;2.35;;;0.80;;
65717;SDS011;52445;52.466;-1.016;2024-02-26T08:08:52;2.28;;;1.92;;
65717;SDS011;52445;52.466;-1.016;2024-02-26T08:11:20;1.85;;;0.90;;
65717;SDS011;52445;52.466;-1.016;2024-02-26T08:13:46;3.83;;;0.95;;
65717;SDS011;52445;52.466;-1.016;2024-02-26T08:16:13;1.67;;;0.60;;
65717;SDS011;52445;52.466;-1.016;2024-02-26T08:18:39;0.85;;;0.82;;
65717;SDS011;52445;52.466;-1.016;2024-02-26T08:21:06;1.40;;;0.63;;
65717;SDS011;52445;52.466;-1.016;2024-02-26T08:23:35;2.17;;;0.95;;
65717;SDS011;52445;52.466;-1.016;2024-02-26T08:26:01;6.68;;;1.02;;
65717;SDS011;52445;52.466;-1.016;2024-02-26T08:28:30;2.10;;;0.80;;
65717;SDS011;52445;52.466;-1.016;2024-02-26T08:30:57;2.03;;;0.77;;
65717;SDS011;52445;52.466;-1.016;2024-02-26T08:33:25;2.13;;;1.05;;
65717;SDS011;52445;52.466;-1.016;2024-02-26T08:35:52;1.80;;;1.70;;
65717;SDS011;52445;52.466;-1.016;2024-02-26T08:38:19;2.28;;;0.93;;
65717;SDS011;52445;52.466;-1.016;2024-02-26T08:40:45;3.33;;;1.05;;
65717;SDS011;52445;52.466;-1.016;2024-02-26T08:43:12;1.80;;;1.13;;
65717;SDS011;52445;52.466;-1.016;2024-02-26T08:45:39;1.90;;;1.02;;
65717;SDS011;52445;52.466;-1.016;2024-02-26T08:48:05;3.92;;;1.02;;
65717;SDS011;52445;52.466;-1.016;2024-02-26T08:50:34;1.08;;;0.90;;
65717;SDS011;52445;52.466;-1.016;2024-02-26T08:53:01;5.45;;;1.17;;
65717;SDS011;52445;52.466;-1.016;2024-02-26T08:55:32;1.30;;;0.80;;
65717;SDS011;52445;52.466;-1.016;2024-02-26T08:58:02;6.18;;;1.60;;
65717;SDS011;52445;52.466;-1.016;2024-02-26T09:00:29;2.60;;;0.90;;
65717;SDS011;52445;52.466;-1.016;2024-02-26T09:02:57;3.97;;;1.10;;
65717;SDS011;52445;52.466;-1.016;2024-02-26T09:05:27;1.35;;;0.93;;
65717;SDS011;52445;52.466;-1.016;2024-02-26T09:07:53;1.75;;;1.00;;
65717;SDS011;52445;52.466;-1.016;2024-02-26T09:10:21;1.55;;;0.70;;
65717;SDS011;52445;52.466;-1.016;2024-02-26T09:12:48;1.38;;;0.80;;
65717;SDS011;52445;52.466;-1.016;2024-02-26T09:15:15;1.60;;;0.75;;
65717;SDS011;52445;52.466;-1.016;2024-02-26T09:17:43;3.90;;;0.93;;
65717;SDS011;52445;52.466;-1.016;2024-02-26T09:20:11;1.42;;;0.50;;
65717;SDS011;52445;52.466;-1.016;2024-02-26T09:22:40;3.88;;;1.13;;
65717;SDS011;52445;52.466;-1.016;2024-02-26T09:25:08;2.83;;;0.80;;
65717;SDS011;52445;52.466;-1.016;2024-02-26T09:27:35;3.90;;;0.70;;
65717;SDS011;52445;52.466;-1.016;2024-02-26T09:30:06;2.42;;;1.20;;
65717;SDS011;52445;52.466;-1.016;2024-02-26T09:32:34;2.75;;;1.17;;
65717;SDS011;52445;52.466;-1.016;2024-02-26T09:35:00;3.00;;;0.75;;
65717;SDS011;52445;52.466;-1.016;2024-02-26T09:37:27;0.98;;;0.55;;
65717;SDS011;52445;52.466;-1.016;2024-02-26T09:39:54;1.73;;;0.82;;
65717;SDS011;52445;52.466;-1.016;2024-02-26T09:42:21;6.22;;;1.02;;
65717;SDS011;52445;52.466;-1.016;2024-02-26T09:44:54;3.13;;;0.85;;
65717;SDS011;52445;52.466;-1.016;2024-02-26T09:47:23;2.97;;;0.65;;
65717;SDS011;52445;52.466;-1.016;2024-02-26T09:49:49;6.22;;;1.02;;
65717;SDS011;52445;52.466;-1.016;2024-02-26T09:52:19;2.40;;;1.08;;
65717;SDS011;52445;52.466;-1.016;2024-02-26T09:54:47;1.75;;;0.63;;
65717;SDS011;52445;52.466;-1.016;2024-02-26T09:57:15;1.40;;;0.70;;
65717;SDS011;52445;52.466;-1.016;2024-02-26T09:59:44;1.67;;;0.60;;
65717;SDS011;52445;52.466;-1.016;2024-02-26T10:02:15;4.47;;;1.10;;
65717;SDS011;52445;52.466;-1.016;2024-02-26T10:04:42;1.38;;;0.60;;
65717;SDS011;52445;52.466;-1.016;2024-02-26T10:07:15;4.35;;;0.82;;
65717;SDS011;52445;52.466;-1.016;2024-02-26T10:09:44;1.40;;;0.52;;
65717;SDS011;52445;52.466;-1.016;2024-02-26T10:12:11;2.13;;;0.80;;
65717;SDS011;52445;52.466;-1.016;2024-02-26T10:14:38;0.93;;;0.60;;
65717;SDS011;52445;52.466;-1.016;2024-02-26T10:17:07;0.95;;;0.57;;
65717;SDS011;52445;52.466;-1.016;2024-02-26T10:19:35;3.47;;;2.05;;
65717;SDS011;52445;52.466;-1.016;2024-02-26T10:22:04;0.85;;;0.60;;
65717;SDS011;52445;52.466;-1.016;2024-02-26T10:24:31;2.80;;;1.17;;
65717;SDS011;52445;52.466;-1.016;2024-02-26T10:26:59;2.85;;;0.35;;
65717;SDS011;52445;52.466;-1.016;2024-02-26T10:29:26;1.60;;;0.70;;
65717;SDS011;52445;52.466;-1.016;2024-02-26T10:31:52;1.05;;;0.93;;
65717;SDS011;52445;52.466;-1.016;2024-02-26T10:34:19;3.85;;;0.73;;
65717;SDS011;52445;52.466;-1.016;2024-02-26T10:36:47;0.50;;;0.47;;
65717;SDS011;52445;52.466;-1.016;2024-02-26T10:39:19;2.25;;;0.35;;
65717;SDS011;52445;52.466;-1.016;2024-02-26T10:41:47;3.38;;;0.95;;
65717;SDS011;52445;52.466;-1.016;2024-02-26T10:44:14;1.85;;;0.90;;
65717;SDS011;52445;52.466;-1.016;2024-02-26T10:46:46;2.15;;;0.50;;
65717;SDS011;52445;52.466;-1.016;2024-02-26T10:49:16;3.30;;;0.57;;
65717;SDS011;52445;52.466;-1.016;2024-02-26T10:51:45;1.65;;;0.80;;
65717;SDS011;52445;52.466;-1.016;2024-02-26T10:54:21;1.17;;;0.52;;
65717;SDS011;52445;52.466;-1.016;2024-02-26T10:56:50;5.30;;;0.77;;
65717;SDS011;52445;52.466;-1.016;2024-02-26T10:59:17;1.02;;;0.63;;
65717;SDS011;52445;52.466;-1.016;2024-02-26T11:01:48;2.63;;;0.52;;
65717;SDS011;52445;52.466;-1.016;2024-02-26T11:04:16;2.35;;;0.95;;
65717;SDS011;52445;52.466;-1.016;2024-02-26T11:06:44;2.05;;;0.73;;
65717;SDS011;52445;52.466;-1.016;2024-02-26T11:09:12;1.75;;;0.45;;
65717;SDS011;52445;52.466;-1.016;2024-02-26T11:11:41;2.08;;;0.60;;
65717;SDS011;52445;52.466;-1.016;2024-02-26T11:14:09;1.27;;;0.88;;
65717;SDS011;52445;52.466;-1.016;2024-02-26T11:16:37;1.42;;;0.60;;
65717;SDS011;52445;52.466;-1.016;2024-02-26T11:19:09;1.67;;;0.50;;
65717;SDS011;52445;52.466;-1.016;2024-02-26T11:21:38;1.20;;;0.43;;
65717;SDS011;52445;52.466;-1.016;2024-02-26T11:24:07;2.88;;;0.90;;
65717;SDS011;52445;52.466;-1.016;2024-02-26T11:26:39;2.13;;;0.82;;
65717;SDS011;52445;52.466;-1.016;2024-02-26T11:29:12;1.33;;;0.50;;
65717;SDS011;52445;52.466;-1.016;2024-02-26T11:31:44;4.28;;;0.43;;
65717;SDS011;52445;52.466;-1.016;2024-02-26T11:34:11;0.70;;;0.50;;
65717;SDS011;52445;52.466;-1.016;2024-02-26T11:36:39;1.55;;;0.32;;
65717;SDS011;52445;52.466;-1.016;2024-02-26T11:39:06;3.00;;;0.95;;
65717;SDS011;52445;52.466;-1.016;2024-02-26T11:41:33;1.73;;;0.68;;
65717;SDS011;52445;52.466;-1.016;2024-02-26T11:44:01;0.98;;;0.40;;
65717;SDS011;52445;52.466;-1.016;2024-02-26T11:46:30;2.35;;;0.50;;
65717;SDS011;52445;52.466;-1.016;2024-02-26T11:48:59;0.80;;;0.30;;
65717;SDS011;52445;52.466;-1.016;2024-02-26T11:51:35;2.30;;;0.80;;
65717;SDS011;52445;52.466;-1.016;2024-02-26T11:54:02;4.18;;;0.90;;
65717;SDS011;52445;52.466;-1.016;2024-02-26T11:56:29;1.65;;;0.70;;
65717;SDS011;52445;52.466;-1.016;2024-02-26T11:59:00;1.33;;;1.10;;
65717;SDS011;52445;52.466;-1.016;2024-02-26T12:01:45;2.83;;;1.70;;
65717;SDS011;52445;52.466;-1.016;2024-02-26T12:04:16;2.20;;;0.93;;
65717;SDS011;52445;52.466;-1.016;2024-02-26T12:06:53;2.80;;;1.83;;
65717;SDS011;52445;52.466;-1.016;2024-02-26T12:09:31;1.90;;;1.80;;
65717;SDS011;52445;52.466;-1.016;2024-02-26T12:12:01;2.65;;;1.75;;
65717;SDS011;52445;52.466;-1.016;2024-02-26T12:14:34;3.00;;;2.00;;
65717;SDS011;52445;52.466;-1.016;2024-02-26T12:17:05;2.90;;;2.55;;
65717;SDS011;52445;52.466;-1.016;2024-02-26T12:19:34;6.13;;;2.53;;
65717;SDS011;52445;52.466;-1.016;2024-02-26T12:22:07;3.10;;;2.67;;
65717;SDS011;52445;52.466;-1.016;2024-02-26T12:24:34;2.65;;;2.22;;
65717;SDS011;52445;52.466;-1.016;2024-02-26T12:27:01;2.20;;;2.10;;
65717;SDS011;52445;52.466;-1.016;2024-02-26T12:29:28;2.47;;;2.10;;
65717;SDS011;52445;52.466;-1.016;2024-02-26T12:31:54;4.97;;;2.00;;
65717;SDS011;52445;52.466;-1.016;2024-02-26T12:34:21;1.42;;;1.33;;
65717;SDS011;52445;52.466;-1.016;2024-02-26T12:36:48;1.73;;;1.63;;
65717;SDS011;52445;52.466;-1.016;2024-02-26T12:39:15;2.15;;;2.05;;
65717;SDS011;52445;52.466;-1.016;2024-02-26T12:41:42;3.35;;;1.80;;
65717;SDS011;52445;52.466;-1.016;2024-02-26T12:44:16;4.35;;;2.55;;
65717;SDS011;52445;52.466;-1.016;2024-02-26T12:46:44;3.13;;;1.90;;
65717;SDS011;52445;52.466;-1.016;2024-02-26T12:49:15;2.67;;;2.05;;
65717;SDS011;52445;52.466;-1.016;2024-02-26T12:51:44;2.40;;;2.20;;
65717;SDS011;52445;52.466;-1.016;2024-02-26T12:54:12;1.83;;;1.73;;
65717;SDS011;52445;52.466;-1.016;2024-02-26T12:56:39;1.55;;;1.45;;
65717;SDS011;52445;52.466;-1.016;2024-02-26T12:59:07;1.63;;;1.52;;
65717;SDS011;52445;52.466;-1.016;2024-02-26T13:01:34;2.33;;;1.98;;
65717;SDS011;52445;52.466;-1.016;2024-02-26T13:04:01;2.53;;;1.67;;
65717;SDS011;52445;52.466;-1.016;2024-02-26T13:06:33;1.88;;;1.58;;
65717;SDS011;52445;52.466;-1.016;2024-02-26T13:09:01;2.95;;;1.83;;
65717;SDS011;52445;52.466;-1.016;2024-02-26T13:11:29;1.80;;;1.58;;
65717;SDS011;52445;52.466;-1.016;2024-02-26T13:13:57;4.10;;;2.17;;
65717;SDS011;52445;52.466;-1.016;2024-02-26T13:16:24;3.70;;;1.80;;
65717;SDS011;52445;52.466;-1.016;2024-02-26T13:18:51;2.33;;;1.98;;
65717;SDS011;52445;52.466;-1.016;2024-02-26T13:21:18;1.48;;;1.30;;
65717;SDS011;52445;52.466;-1.016;2024-02-26T13:23:49;2.05;;;1.92;;
65717;SDS011;52445;52.466;-1.016;2024-02-26T13:26:21;2.30;;;1.50;;
65717;SDS011;52445;52.466;-1.016;2024-02-26T13:29:06;1.17;;;1.08;;
65717;SDS011;52445;52.466;-1.016;2024-02-26T13:31:38;2.08;;;1.98;;
65717;SDS011;52445;52.466;-1.016;2024-02-26T13:34:10;2.10;;;2.00;;
65717;SDS011;52445;52.466;-1.016;2024-02-26T13:36:37;2.13;;;1.98;;
65717;SDS011;52445;52.466;-1.016;2024-02-26T13:39:04;2.78;;;1.77;;
65717;SDS011;52445;52.466;-1.016;2024-02-26T13:41:31;1.67;;;1.42;;
65717;SDS011;52445;52.466;-1.016;2024-02-26T13:43:59;1.63;;;1.52;;
65717;SDS011;52445;52.466;-1.016;2024-02-26T13:46:27;1.48;;;1.38;;
65717;SDS011;52445;52.466;-1.016;2024-02-26T13:48:54;2.53;;;1.30;;
65717;SDS011;52445;52.466;-1.016;2024-02-26T13:51:22;2.25;;;2.15;;
65717;SDS011;52445;52.466;-1.016;2024-02-26T13:53:49;0.95;;;0.95;;
65717;SDS011;52445;52.466;-1.016;2024-02-26T13:56:16;1.92;;;1.33;;
65717;SDS011;52445;52.466;-1.016;2024-02-26T13:58:42;3.83;;;1.52;;
65717;SDS011;52445;52.466;-1.016;2024-02-26T14:01:09;1.83;;;1.40;;
65717;SDS011;52445;52.466;-1.016;2024-02-26T14:03:37;1.27;;;1.20;;
65717;SDS011;52445;52.466;-1.016;2024-02-26T14:06:04;2.92;;;2.22;;
65717;SDS011;52445;52.466;-1.016;2024-02-26T14:08:31;1.48;;;1.38;;
65717;SDS011;52445;52.466;-1.016;2024-02-26T14:10:58;4.63;;;1.20;;
65717;SDS011;52445;52.466;-1.016;2024-02-26T14:13:29;2.53;;;1.77;;
65717;SDS011;52445;52.466;-1.016;2024-02-26T14:15:56;2.67;;;1.65;;
65717;SDS011;52445;52.466;-1.016;2024-02-26T14:18:23;5.65;;;2.13;;
65717;SDS011;52445;52.466;-1.016;2024-02-26T14:20:50;1.90;;;1.63;;
65717;SDS011;52445;52.466;-1.016;2024-02-26T14:23:17;1.52;;;1.38;;
65717;SDS011;52445;52.466;-1.016;2024-02-26T14:25:44;2.92;;;1.20;;
65717;SDS011;52445;52.466;-1.016;2024-02-26T14:28:11;0.98;;;0.88;;
65717;SDS011;52445;52.466;-1.016;2024-02-26T14:30:47;2.25;;;2.15;;
65717;SDS011;52445;52.466;-1.016;2024-02-26T14:33:15;2.35;;;1.63;;
65717;SDS011;52445;52.466;-1.016;2024-02-26T14:35:42;4.72;;;1.67;;
65717;SDS011;52445;52.466;-1.016;2024-02-26T14:38:09;0.85;;;0.85;;